Rechercher aéroport 
image banner adimage banner adimage banner ad
image banner ad

CA675 - Miramar Con Mines (Cea2)

Situé à , Canada

ICAO - , IATA -

Données fournies par Airmate  

Information générale

Coordonnées: N62°26'1" W114°22'5"
Élévation : feet MSL.
 
Voir autres Aéroports à Northwest Territories

Données opérationnelles

Special qualification required
Heure actuelle UTC:
Heure actuelle locale:
Météo à : CYZF - Yellowknife ( 5 km )
METAR: CYZF 070021Z 06006KT 15SM -SN BKN009 BKN065 M28/M31 A2987 RMK SC6SC1 SC TR SLP151
TAF: TAF AMD CYZF 070033Z 0700/0724 06007KT P6SM SCT008 TEMPO 0700/0703 P6SM -SN BKN008 BECMG 0715/0717 11015G25KT FM072100 11017G27KT P6SM BKN140 RMK NXT FCST BY 070600Z
Voir NOTAMs / SUP AIP / TFR affectant cet aéroport [VIEW]
Fréquences de communication: [VIEW]

Pistes:

Coordonnées de l'aéroport

Adresse: Canada

Vue satellite de CA675